Detall de PIREP

Printer-friendly versionPDF version

[2014/12/29 14:47:00]
Flight IATA:CT1004
Pilot Number:012
Company ICAO:CAT
Aircraft Type:MD11/E
PAX:0
Aircraft Registration:CARGO
Departing Airport: LFMP
Destination Airport: EDDF
Alternate Airport:EDDL
Online: VATSIM
Route:FJR UL127 PADKO UN854 DJL UM129 EPL UL47 GTQ UN852 LIMGO UZ111 OBIGA Z111 RAMOB
Flight Level:F360
No Slew and time accel
No pause
Crash detect
Detect pilot in Cockpit between each 30 and 45 minutes
14:47 Zero fuel Weight: 336009 Lbs, Fuel Weight: 44887 Lbs
14:47 VATSIM:LFMP 291430Z AUTO 30022G33KT 9999 NSC 06/M08 Q1031
14:47 VATSIM:EDDF 291420Z 22006KT 160V260 9999 FEW009 SCT030 BKN050 02/M00 Q1030 R25L/290095 R25C/290095 R25R/290095 R18/290095 BECMG 33008KT
14:47 X-MAS CHARTER
14:49 Parking Brakes off
14:52 Take-off
14:52 Take off Weight: 380030 Lbs
14:52 Wind: 299º @ 025 Knots Heading: 328º
14:52 POS N42º 44´ 38´´ E002º 52´ 11´´
14:52 Gear Up: 194 Knots
14:52 Flaps:3 at 194 Knots
14:53 Flaps:2 at 209 Knots
14:53 Flaps:3 at 204 Knots
14:53 Flaps:2 at 202 Knots
14:53 Flaps:1 at 200 Knots
14:53 Flaps:2 at 160 Knots
14:53 Flaps:3 at 163 Knots
14:54 Flaps:2 at 249 Knots
14:54 Flaps:3 at 250 Knots
14:54 Flaps:2 at 250 Knots
14:54 Flaps:1 at 251 Knots
14:58 Flaps:0 at 237 Knots
15:07 Wind:025º@065 Knots Heading: 031º Ground Speed: 403 Knots Altitude 34494 ft
15:22 Wind:027º@062 Knots Heading: 000º Ground Speed: 408 Knots Altitude 34606 ft
15:37 Wind:030º@064 Knots Heading: 004º Ground Speed: 403 Knots Altitude 34652 ft
15:52 Wind:035º@082 Knots Heading: 032º Ground Speed: 378 Knots Altitude 34586 ft
16:07 Wind:029º@073 Knots Heading: 042º Ground Speed: 379 Knots Altitude 29763 ft
16:22 Wind:358º@032 Knots Heading: 062º Ground Speed: 261 Knots Altitude 10111 ft
16:34 Flaps:1 at 248 Knots
16:34 Flaps:2 at 248 Knots
16:34 Flaps:3 at 245 Knots
16:36 Gear Down: 206 Knots
16:36 Flaps:4 at 196 Knots
16:36 Flaps:3 at 195 Knots
16:36 Flaps:4 at 193 Knots
16:36 Flaps:5 at 189 Knots
16:36 Flaps:6 at 188 Knots
16:37 Wind:358º@031 Knots Heading: 241º Ground Speed: 210 Knots Altitude 6076 ft
16:37 Flaps:7 at 174 Knots
16:43 TouchDown:Rate -199 ft/min Speed: 142 Knots
16:43 VATSIM:EDDF 291620Z 35009KT 9999 FEW012 SCT020 BKN050 02/M02 Q1032 R25L/290095 R25C/290095 R25R/290095 R18/290095 NOSIG
16:43 Land
16:43 Wind:358º@009 Knots
16:43 Heading: 249º
16:43 Flight Duration: 01:51
16:43 Landing Weight: 351318 Lbs
16:43 POS N50º 02´ 20´´ E008º 33´ 38´´
16:48 Parking brakes on
16:48 Block to Block Duration: 01:59
16:48 Final Fuel: 14898 Lbls
16:48 Spent Fuel: 29989 Lbls
16:48 Flight Length: 627 NM
16:48 TOD Land Length: 627 NM

Exportar CSV

Powered by Drupal - Modified by Danger4k